createdAt,value
2023-03-28T00:01:02.579Z,1.10
2023-03-28T00:03:35.793Z,1.00
2023-03-28T00:06:09.880Z,1.00
2023-03-28T00:08:40.577Z,0.93
2023-03-28T00:11:11.597Z,1.17
2023-03-28T00:13:40.874Z,1.20
2023-03-28T00:16:13.118Z,1.20
2023-03-28T00:18:42.848Z,0.90
2023-03-28T00:21:23.740Z,1.00
2023-03-28T00:23:53.631Z,1.20
2023-03-28T00:26:24.986Z,1.03
2023-03-28T00:28:54.823Z,0.90
2023-03-28T00:31:23.802Z,0.80
2023-03-28T00:33:51.928Z,0.97
2023-03-28T00:36:26.688Z,1.00
2023-03-28T00:38:55.208Z,0.70
2023-03-28T00:41:24.672Z,0.90
2023-03-28T00:43:55.715Z,1.17
2023-03-28T00:46:29.998Z,1.23
2023-03-28T00:49:01.988Z,1.00
2023-03-28T00:51:35.649Z,1.07
2023-03-28T00:54:06.503Z,1.20
2023-03-28T00:56:38.522Z,0.83
2023-03-28T00:59:12.517Z,1.30
2023-03-28T01:01:40.756Z,1.07
2023-03-28T01:04:10.328Z,1.03
2023-03-28T01:06:42.657Z,1.10
2023-03-28T01:09:11.003Z,0.93
2023-03-28T01:11:42.000Z,1.13
2023-03-28T01:14:17.672Z,1.10
2023-03-28T01:16:47.834Z,1.30
2023-03-28T01:19:27.219Z,1.10
2023-03-28T01:22:32.397Z,1.20
2023-03-28T01:25:31.816Z,1.00
2023-03-28T01:28:05.456Z,0.90
2023-03-28T01:31:02.324Z,1.00
2023-03-28T01:33:54.561Z,0.90
2023-03-28T01:36:48.323Z,1.20
2023-03-28T01:39:23.990Z,1.00
2023-03-28T01:41:59.906Z,1.60
2023-03-28T01:44:36.331Z,1.00
2023-03-28T01:47:15.055Z,1.30
2023-03-28T01:49:48.439Z,0.90
2023-03-28T01:52:24.210Z,0.80
2023-03-28T01:54:58.527Z,0.87
2023-03-28T01:57:34.122Z,0.83
2023-03-28T02:00:12.847Z,0.83
2023-03-28T02:02:49.542Z,0.80
2023-03-28T02:05:20.482Z,1.17
2023-03-28T02:07:52.000Z,1.43
2023-03-28T02:10:24.037Z,0.90
2023-03-28T02:12:55.482Z,1.10
2023-03-28T02:15:27.296Z,1.03
2023-03-28T02:18:03.864Z,0.90
2023-03-28T02:20:34.051Z,1.30
2023-03-28T02:23:09.639Z,1.10
2023-03-28T02:25:39.467Z,1.07
2023-03-28T02:28:10.375Z,0.87
2023-03-28T02:30:38.477Z,1.00
2023-03-28T02:33:10.141Z,1.10
2023-03-28T02:35:48.747Z,0.97
2023-03-28T02:38:24.799Z,0.90
2023-03-28T02:40:59.500Z,0.90
2023-03-28T02:43:56.574Z,1.17
2023-03-28T02:46:31.467Z,0.90
2023-03-28T02:49:18.868Z,0.90
2023-03-28T02:51:54.168Z,1.10
2023-03-28T02:54:32.861Z,0.97
2023-03-28T02:57:08.374Z,0.80
2023-03-28T02:59:42.289Z,1.13
2023-03-28T03:02:11.954Z,1.00
2023-03-28T03:04:39.840Z,0.87
2023-03-28T03:07:09.085Z,1.00
2023-03-28T03:09:38.553Z,1.10
2023-03-28T03:12:07.038Z,0.90
2023-03-28T03:14:37.086Z,0.83
2023-03-28T03:17:06.169Z,0.80
2023-03-28T03:19:34.263Z,0.77
2023-03-28T03:22:02.454Z,0.80
2023-03-28T03:24:30.476Z,1.20
2023-03-28T03:26:59.895Z,0.97
2023-03-28T03:29:27.731Z,1.10
2023-03-28T03:32:07.461Z,1.10
2023-03-28T03:34:36.932Z,1.27
2023-03-28T03:37:05.153Z,1.00
2023-03-28T03:39:36.092Z,1.40
2023-03-28T03:42:05.574Z,0.80
2023-03-28T03:44:33.474Z,0.90
2023-03-28T03:47:01.665Z,0.97
2023-03-28T03:49:30.892Z,1.00
2023-03-28T03:52:00.313Z,1.00
2023-03-28T03:54:28.391Z,0.97
2023-03-28T03:56:56.346Z,1.00
2023-03-28T03:59:27.576Z,0.97
2023-03-28T04:01:55.892Z,1.00
2023-03-28T04:04:26.164Z,0.97
2023-03-28T04:06:54.149Z,1.50
2023-03-28T04:09:26.789Z,1.07
2023-03-28T04:11:54.934Z,1.20
2023-03-28T04:14:23.110Z,1.10
2023-03-28T04:16:54.111Z,1.10
2023-03-28T04:19:24.318Z,1.13
2023-03-28T04:21:52.593Z,1.10
2023-03-28T04:24:24.324Z,0.90
2023-03-28T04:26:55.970Z,1.10
2023-03-28T04:29:30.911Z,0.90
2023-03-28T04:32:00.792Z,1.30
2023-03-28T04:34:30.899Z,0.90
2023-03-28T04:37:02.045Z,0.93
2023-03-28T04:39:30.979Z,1.20
2023-03-28T04:42:03.513Z,0.93
2023-03-28T04:44:31.862Z,0.90
2023-03-28T04:47:01.465Z,1.00
2023-03-28T04:49:29.445Z,0.80
2023-03-28T04:51:57.533Z,0.87
2023-03-28T04:54:25.424Z,1.00
2023-03-28T04:56:53.418Z,0.90
2023-03-28T04:59:21.604Z,1.07
2023-03-28T05:01:50.381Z,0.77
2023-03-28T05:04:22.144Z,1.10
2023-03-28T05:06:51.598Z,0.80
2023-03-28T05:09:19.801Z,1.07
2023-03-28T05:11:49.132Z,0.80
2023-03-28T05:14:19.668Z,0.90
2023-03-28T05:16:48.865Z,1.10
2023-03-28T05:19:18.231Z,1.17
2023-03-28T05:21:47.683Z,1.23
2023-03-28T05:24:15.599Z,1.20
2023-03-28T05:26:43.588Z,1.00
2023-03-28T05:29:12.644Z,1.23
2023-03-28T05:31:40.641Z,0.90
2023-03-28T05:34:08.666Z,1.10
2023-03-28T05:36:36.729Z,1.00
2023-03-28T05:39:06.995Z,1.07
2023-03-28T05:41:34.964Z,1.00
2023-03-28T05:44:04.293Z,1.10
2023-03-28T05:46:32.147Z,0.87
2023-03-28T05:49:00.036Z,1.20
2023-03-28T05:51:27.998Z,1.00
2023-03-28T05:53:55.884Z,1.20
2023-03-28T05:56:25.364Z,1.33
2023-03-28T05:58:53.355Z,1.13
2023-03-28T06:01:23.470Z,0.90
2023-03-28T06:03:51.604Z,1.00
2023-03-28T06:06:20.471Z,1.20
2023-03-28T06:08:48.435Z,1.43
2023-03-28T06:11:17.031Z,1.20
2023-03-28T06:13:46.699Z,1.00
2023-03-28T06:16:14.567Z,1.10
2023-03-28T06:18:42.536Z,1.00
2023-03-28T06:21:10.523Z,1.00
2023-03-28T06:23:38.437Z,1.20
2023-03-28T06:26:06.738Z,1.00
2023-03-28T06:28:36.030Z,1.10
2023-03-28T06:31:05.985Z,1.13
2023-03-28T06:33:33.973Z,0.93
2023-03-28T06:36:02.247Z,0.83
2023-03-28T06:38:30.622Z,1.00
2023-03-28T06:40:58.815Z,0.90
2023-03-28T06:43:31.347Z,1.20
2023-03-28T06:45:59.515Z,1.20
2023-03-28T06:48:33.556Z,1.03
2023-03-28T06:51:03.014Z,1.37
2023-03-28T06:53:32.357Z,1.20
2023-03-28T06:56:00.367Z,0.90
2023-03-28T06:58:28.515Z,1.10
2023-03-28T07:00:59.715Z,1.20
2023-03-28T07:03:32.384Z,0.80
2023-03-28T07:06:00.758Z,0.93
2023-03-28T07:08:31.236Z,1.30
2023-03-28T07:11:02.140Z,0.93
2023-03-28T07:13:30.556Z,1.10
2023-03-28T07:16:03.437Z,0.80
2023-03-28T07:18:33.447Z,0.93
2023-03-28T07:21:07.174Z,1.00
2023-03-28T07:23:35.397Z,0.80
2023-03-28T07:26:04.655Z,0.80
2023-03-28T07:28:32.777Z,0.87
2023-03-28T07:31:02.567Z,1.00
2023-03-28T07:33:36.756Z,1.00
2023-03-28T07:36:11.744Z,0.90
2023-03-28T07:38:42.257Z,1.00
2023-03-28T07:41:11.445Z,0.80
2023-03-28T07:43:42.037Z,0.87
2023-03-28T07:46:11.674Z,0.90
2023-03-28T07:48:41.884Z,0.60
2023-03-28T07:51:12.434Z,0.90
2023-03-28T07:53:40.836Z,0.90
2023-03-28T07:56:12.468Z,0.80
2023-03-28T07:58:41.063Z,0.90
2023-03-28T08:01:11.061Z,0.97
2023-03-28T08:03:41.538Z,0.90
2023-03-28T08:06:28.754Z,0.77
2023-03-28T08:08:59.375Z,0.90
2023-03-28T08:11:28.155Z,0.70
2023-03-28T08:13:55.982Z,0.70
2023-03-28T08:16:25.978Z,0.80
2023-03-28T08:19:09.115Z,0.83
2023-03-28T08:21:38.868Z,0.90
2023-03-28T08:24:07.911Z,1.00
2023-03-28T08:26:36.917Z,0.90
2023-03-28T08:29:06.205Z,1.00
2023-03-28T08:31:34.715Z,0.90
2023-03-28T08:34:04.631Z,0.80
2023-03-28T08:36:32.953Z,0.90
2023-03-28T08:39:01.529Z,0.93
2023-03-28T08:41:48.511Z,1.10
2023-03-28T08:44:40.492Z,0.80
2023-03-28T08:47:13.441Z,0.90
2023-03-28T08:49:47.644Z,0.80
2023-03-28T08:52:19.327Z,1.03
2023-03-28T08:54:51.215Z,1.10
2023-03-28T08:57:22.760Z,1.30
2023-03-28T08:59:57.382Z,1.10
2023-03-28T09:02:28.441Z,0.70
2023-03-28T09:05:12.142Z,1.00
2023-03-28T09:07:56.211Z,1.03
2023-03-28T09:10:31.755Z,0.80
2023-03-28T09:13:12.499Z,0.80
2023-03-28T09:15:59.352Z,0.80
2023-03-28T09:18:52.199Z,1.00
2023-03-28T09:21:30.331Z,1.20
2023-03-28T09:24:32.574Z,1.10
2023-03-28T09:27:06.577Z,1.00
2023-03-28T09:29:38.367Z,1.10
2023-03-28T09:32:13.820Z,1.00
2023-03-28T09:34:48.549Z,1.00
2023-03-28T09:37:30.782Z,1.00
2023-03-28T09:40:08.069Z,0.93
2023-03-28T09:42:44.920Z,1.10
2023-03-28T09:45:27.082Z,0.90
2023-03-28T09:47:55.070Z,0.90
2023-03-28T09:50:22.985Z,0.80
2023-03-28T09:52:52.395Z,0.90
2023-03-28T09:55:23.249Z,1.10
2023-03-28T09:58:05.226Z,1.20
2023-03-28T10:00:37.737Z,1.20
2023-03-28T10:03:08.362Z,1.20
2023-03-28T10:05:40.784Z,1.03
2023-03-28T10:08:24.419Z,0.93
2023-03-28T10:10:56.943Z,0.90
2023-03-28T10:13:25.009Z,0.90
2023-03-28T10:15:53.815Z,1.00
2023-03-28T10:18:23.087Z,0.93
2023-03-28T10:20:52.223Z,1.17
2023-03-28T10:23:23.596Z,1.10
2023-03-28T10:25:53.744Z,1.00
2023-03-28T10:28:29.724Z,1.20
2023-03-28T10:31:01.031Z,0.70
2023-03-28T10:33:34.355Z,0.90
2023-03-28T10:36:04.005Z,0.80
2023-03-28T10:38:37.666Z,0.80
2023-03-28T10:41:09.547Z,1.00
2023-03-28T10:43:39.900Z,0.80
2023-03-28T10:46:17.107Z,1.20
2023-03-28T10:48:50.508Z,1.07
2023-03-28T10:51:22.193Z,0.73
2023-03-28T10:54:17.597Z,1.00
2023-03-28T10:56:52.891Z,1.03
2023-03-28T10:59:38.176Z,1.00
2023-03-28T11:02:34.476Z,0.90
2023-03-28T11:05:12.862Z,1.03
2023-03-28T11:07:46.154Z,0.90
2023-03-28T11:10:20.779Z,1.03
2023-03-28T11:12:59.291Z,0.90
2023-03-28T11:15:35.114Z,0.80
2023-03-28T11:18:18.557Z,1.27
2023-03-28T11:20:55.344Z,0.90
2023-03-28T11:23:42.081Z,0.70
2023-03-28T11:26:14.396Z,0.80
2023-03-28T11:29:08.427Z,0.70
2023-03-28T11:31:41.058Z,0.73
2023-03-28T11:34:16.062Z,0.70
2023-03-28T11:36:53.578Z,0.80
2023-03-28T11:39:28.970Z,0.80
2023-03-28T11:42:03.288Z,0.80
2023-03-28T11:44:34.615Z,0.60
2023-03-28T11:47:12.477Z,0.80
2023-03-28T11:49:47.530Z,0.80
2023-03-28T11:52:20.911Z,0.60
2023-03-28T11:54:57.572Z,0.67
2023-03-28T11:57:34.874Z,1.00
2023-03-28T12:00:14.828Z,0.90
2023-03-28T12:02:55.766Z,0.60
2023-03-28T12:05:30.815Z,0.90
2023-03-28T12:08:04.845Z,0.80
2023-03-28T12:10:36.508Z,0.60
2023-03-28T12:13:12.394Z,0.70
2023-03-28T12:15:47.296Z,0.83
2023-03-28T12:18:21.548Z,0.80
2023-03-28T12:20:56.054Z,0.70
2023-03-28T12:23:33.212Z,0.77
2023-03-28T12:26:12.841Z,0.90
2023-03-28T12:28:47.240Z,0.57
2023-03-28T12:31:19.709Z,0.60
2023-03-28T12:33:56.818Z,1.13
2023-03-28T12:36:34.243Z,0.70
2023-03-28T12:39:12.643Z,0.50
2023-03-28T12:41:41.776Z,0.80
2023-03-28T12:44:16.906Z,0.50
2023-03-28T12:46:52.148Z,0.97
2023-03-28T12:49:28.405Z,0.70
2023-03-28T12:52:01.408Z,0.63
2023-03-28T12:54:35.617Z,0.70
2023-03-28T12:57:23.714Z,0.50
2023-03-28T13:00:18.586Z,0.57
2023-03-28T13:02:51.899Z,0.50
2023-03-28T13:05:26.376Z,0.60
2023-03-28T13:08:01.578Z,0.57
2023-03-28T13:10:42.784Z,0.40
2023-03-28T13:13:31.823Z,0.50
2023-03-28T13:16:07.427Z,0.43
2023-03-28T13:18:38.225Z,0.40
2023-03-28T13:21:08.417Z,0.43
2023-03-28T13:23:48.546Z,0.60
2023-03-28T13:26:16.840Z,0.70
2023-03-28T13:28:47.922Z,0.40
2023-03-28T13:31:26.966Z,0.40
2023-03-28T13:33:58.647Z,0.40
2023-03-28T13:36:29.577Z,0.70
2023-03-28T13:39:23.826Z,0.43
2023-03-28T13:41:58.315Z,0.55
2023-03-28T13:44:32.201Z,0.30
2023-03-28T13:47:01.801Z,0.30
2023-03-28T13:49:38.086Z,0.52
2023-03-28T13:52:11.709Z,0.20
2023-03-28T13:54:40.139Z,0.40
2023-03-28T13:57:13.995Z,0.45
2023-03-28T13:59:51.308Z,0.60
2023-03-28T14:02:31.467Z,0.43
2023-03-28T14:05:12.307Z,0.57
2023-03-28T14:07:54.294Z,0.40
2023-03-28T14:10:31.087Z,0.40
2023-03-28T14:13:06.242Z,0.30
2023-03-28T14:15:37.415Z,0.60
2023-03-28T14:18:08.913Z,0.40
2023-03-28T14:20:39.663Z,0.30
2023-03-28T14:23:08.732Z,0.57
2023-03-28T14:25:37.576Z,0.60
2023-03-28T14:28:10.324Z,0.40
2023-03-28T14:30:42.897Z,0.50
2023-03-28T14:33:21.548Z,0.35
2023-03-28T14:36:05.576Z,0.50
2023-03-28T14:38:36.505Z,0.50
2023-03-28T14:41:08.081Z,0.50
2023-03-28T14:43:37.152Z,0.50
2023-03-28T14:46:09.441Z,0.40
2023-03-28T14:48:40.707Z,0.57
2023-03-28T14:51:12.733Z,0.45
2023-03-28T14:53:43.408Z,0.50
2023-03-28T14:56:24.847Z,0.60
2023-03-28T14:59:02.337Z,0.40
2023-03-28T15:01:34.110Z,0.77
2023-03-28T15:04:10.455Z,0.75
2023-03-28T15:06:39.540Z,0.40
2023-03-28T15:09:12.619Z,0.40
2023-03-28T15:11:44.934Z,0.60
2023-03-28T15:14:18.614Z,0.60
2023-03-28T15:16:48.974Z,0.55
2023-03-28T15:19:23.386Z,0.50
2023-03-28T15:21:58.938Z,0.50
2023-03-28T15:24:30.758Z,0.47
2023-03-28T15:27:01.795Z,0.40
2023-03-28T15:29:34.369Z,0.30
2023-03-28T15:32:05.337Z,0.40
2023-03-28T15:34:45.248Z,0.47
2023-03-28T15:37:19.650Z,0.63
2023-03-28T15:39:49.706Z,0.40
2023-03-28T15:42:35.382Z,0.57
2023-03-28T15:45:27.310Z,0.70
2023-03-28T15:47:56.673Z,0.40
2023-03-28T15:50:33.241Z,0.50
2023-03-28T15:53:03.996Z,0.60
2023-03-28T15:55:32.651Z,0.47
2023-03-28T15:58:01.046Z,0.40
2023-03-28T16:00:50.267Z,0.30
2023-03-28T16:03:34.340Z,0.50
2023-03-28T16:06:23.126Z,0.50
2023-03-28T16:09:14.609Z,0.43
2023-03-28T16:11:42.757Z,0.57
2023-03-28T16:14:15.133Z,0.47
2023-03-28T16:16:43.249Z,0.30
2023-03-28T16:19:18.404Z,0.30
2023-03-28T16:21:49.488Z,0.53
2023-03-28T16:24:17.813Z,0.47
2023-03-28T16:26:48.788Z,0.50
2023-03-28T16:29:16.948Z,0.53
2023-03-28T16:31:45.208Z,0.70
2023-03-28T16:34:13.302Z,0.33
2023-03-28T16:36:41.580Z,0.53
2023-03-28T16:39:11.706Z,0.50
2023-03-28T16:41:42.288Z,0.40
2023-03-28T16:44:10.532Z,0.50
2023-03-28T16:46:38.485Z,0.43
2023-03-28T16:49:07.558Z,0.57
2023-03-28T16:51:35.492Z,0.30
2023-03-28T16:54:06.728Z,0.60
2023-03-28T16:56:36.258Z,0.67
2023-03-28T16:59:05.720Z,0.50
2023-03-28T17:01:33.985Z,0.30
2023-03-28T17:04:02.795Z,0.50
2023-03-28T17:06:30.949Z,0.70
2023-03-28T17:08:58.905Z,0.63
2023-03-28T17:11:27.155Z,0.50
2023-03-28T17:13:56.515Z,0.77
2023-03-28T17:16:24.617Z,0.70
2023-03-28T17:18:53.808Z,0.50
2023-03-28T17:21:21.763Z,0.60
2023-03-28T17:23:51.974Z,0.73
2023-03-28T17:26:20.110Z,0.60
2023-03-28T17:28:48.231Z,0.43
2023-03-28T17:31:19.424Z,0.77
2023-03-28T17:33:50.117Z,0.70
2023-03-28T17:36:21.898Z,1.87
2023-03-28T17:38:50.960Z,1.60
2023-03-28T17:41:19.325Z,1.43
2023-03-28T17:43:47.403Z,1.57
2023-03-28T17:46:15.636Z,0.90
2023-03-28T17:48:45.319Z,0.67
2023-03-28T17:51:14.375Z,0.70
2023-03-28T17:53:44.655Z,0.60
2023-03-28T17:56:13.312Z,0.80
2023-03-28T17:58:41.352Z,0.60
2023-03-28T18:01:11.649Z,0.60
2023-03-28T18:03:40.403Z,0.80
2023-03-28T18:06:14.016Z,0.90
2023-03-28T18:08:45.047Z,0.70
2023-03-28T18:11:15.777Z,0.60
2023-03-28T18:13:44.196Z,0.57
2023-03-28T18:16:14.050Z,0.67
2023-03-28T18:18:42.575Z,0.90
2023-03-28T18:21:12.742Z,0.70
2023-03-28T18:23:41.283Z,0.60
2023-03-28T18:26:10.362Z,1.00
2023-03-28T18:28:38.386Z,0.80
2023-03-28T18:31:11.671Z,0.90
2023-03-28T18:33:43.138Z,0.60
2023-03-28T18:36:14.290Z,0.90
2023-03-28T18:38:44.223Z,1.37
2023-03-28T18:41:13.530Z,0.80
2023-03-28T18:43:42.588Z,0.80
2023-03-28T18:46:15.449Z,0.90
2023-03-28T18:48:44.911Z,0.90
2023-03-28T18:51:14.197Z,0.70
2023-03-28T18:53:42.020Z,0.70
2023-03-28T18:56:13.793Z,0.80
2023-03-28T18:58:41.842Z,0.60
2023-03-28T19:01:11.929Z,0.70
2023-03-28T19:03:42.665Z,0.90
2023-03-28T19:06:12.958Z,0.80
2023-03-28T19:08:42.477Z,0.80
2023-03-28T19:11:13.575Z,0.60
2023-03-28T19:13:42.536Z,1.00
2023-03-28T19:16:12.667Z,0.77
2023-03-28T19:18:42.077Z,1.00
2023-03-28T19:21:11.661Z,0.80
2023-03-28T19:23:39.774Z,1.10
2023-03-28T19:26:12.065Z,0.90
2023-03-28T19:28:40.801Z,1.00
2023-03-28T19:31:11.021Z,0.67
2023-03-28T19:33:40.954Z,1.00
2023-03-28T19:36:10.854Z,0.97
2023-03-28T19:38:39.983Z,0.80
2023-03-28T19:41:15.691Z,0.80
2023-03-28T19:43:44.143Z,0.83
2023-03-28T19:46:16.706Z,0.90
2023-03-28T19:48:46.392Z,0.80
2023-03-28T19:51:15.545Z,1.10
2023-03-28T19:53:43.644Z,0.90
2023-03-28T19:56:14.071Z,0.90
2023-03-28T19:58:42.096Z,1.47
2023-03-28T20:01:10.152Z,1.30
2023-03-28T20:03:38.140Z,0.90
2023-03-28T20:06:07.980Z,0.90
2023-03-28T20:08:37.665Z,0.87
2023-03-28T20:11:08.702Z,1.00
2023-03-28T20:13:38.019Z,1.10
2023-03-28T20:16:08.660Z,1.30
2023-03-28T20:18:37.244Z,0.80
2023-03-28T20:21:08.848Z,1.10
2023-03-28T20:23:37.694Z,0.87
2023-03-28T20:26:18.157Z,0.83
2023-03-28T20:28:50.334Z,0.87
2023-03-28T20:31:19.387Z,1.23
2023-03-28T20:33:47.881Z,1.03
2023-03-28T20:36:16.061Z,1.20
2023-03-28T20:38:46.867Z,1.27
2023-03-28T20:41:16.608Z,0.93
2023-03-28T20:43:47.890Z,1.00
2023-03-28T20:46:19.707Z,0.73
2023-03-28T20:48:53.262Z,0.70
2023-03-28T20:51:23.889Z,0.80
2023-03-28T20:53:54.606Z,1.10
2023-03-28T20:56:23.486Z,0.67
2023-03-28T20:58:53.547Z,1.07
2023-03-28T21:01:26.502Z,1.03
2023-03-28T21:03:55.421Z,0.77
2023-03-28T21:06:26.101Z,1.10
2023-03-28T21:08:55.354Z,0.80
2023-03-28T21:11:26.543Z,1.10
2023-03-28T21:13:55.108Z,1.00
2023-03-28T21:16:25.200Z,1.27
2023-03-28T21:18:53.507Z,1.10
2023-03-28T21:21:22.735Z,0.77
2023-03-28T21:23:53.202Z,1.03
2023-03-28T21:26:23.730Z,0.93
2023-03-28T21:28:53.535Z,0.90
2023-03-28T21:31:27.297Z,1.00
2023-03-28T21:33:57.466Z,0.93
2023-03-28T21:36:27.177Z,1.30
2023-03-28T21:38:56.237Z,1.03
2023-03-28T21:41:24.482Z,0.83
2023-03-28T21:43:53.797Z,1.10
2023-03-28T21:46:22.279Z,0.93
2023-03-28T21:48:51.692Z,1.10
2023-03-28T21:51:19.812Z,0.90
2023-03-28T21:53:47.747Z,0.90
2023-03-28T21:56:17.497Z,1.40
2023-03-28T21:58:45.655Z,1.07
2023-03-28T22:01:17.941Z,1.27
2023-03-28T22:03:47.201Z,1.00
2023-03-28T22:06:20.550Z,1.10
2023-03-28T22:08:52.343Z,1.00
2023-03-28T22:11:27.972Z,1.27
2023-03-28T22:14:02.560Z,1.07
2023-03-28T22:16:34.816Z,1.23
2023-03-28T22:19:02.969Z,1.30
2023-03-28T22:21:32.616Z,1.20
2023-03-28T22:24:03.093Z,1.20
2023-03-28T22:26:31.255Z,1.10
2023-03-28T22:29:00.274Z,1.03
2023-03-28T22:31:32.706Z,1.37
2023-03-28T22:34:01.055Z,1.53
2023-03-28T22:36:29.246Z,1.40
2023-03-28T22:38:59.594Z,1.20
2023-03-28T22:41:32.020Z,1.30
2023-03-28T22:44:00.421Z,1.30
2023-03-28T22:46:28.441Z,1.50
2023-03-28T22:48:58.534Z,1.30
2023-03-28T22:51:28.379Z,1.43
2023-03-28T22:54:01.901Z,1.50
2023-03-28T22:56:29.968Z,1.53
2023-03-28T22:59:01.459Z,1.47
2023-03-28T23:01:30.038Z,1.40
2023-03-28T23:03:58.430Z,1.80
2023-03-28T23:06:28.649Z,1.80
2023-03-28T23:08:59.597Z,1.40
2023-03-28T23:11:29.056Z,1.50
2023-03-28T23:13:56.926Z,1.70
2023-03-28T23:16:24.996Z,1.57
2023-03-28T23:18:54.140Z,1.37
2023-03-28T23:21:23.058Z,1.37
2023-03-28T23:23:51.534Z,1.60
2023-03-28T23:26:19.551Z,1.30
2023-03-28T23:28:48.834Z,1.63
2023-03-28T23:31:17.037Z,1.43
2023-03-28T23:33:46.456Z,1.50
2023-03-28T23:36:20.866Z,1.47
2023-03-28T23:38:50.179Z,1.37
2023-03-28T23:41:18.222Z,1.43
2023-03-28T23:43:46.283Z,1.53
2023-03-28T23:46:15.917Z,1.50
2023-03-28T23:48:43.797Z,1.70
2023-03-28T23:51:11.889Z,1.70
2023-03-28T23:53:42.548Z,1.50
2023-03-28T23:56:11.699Z,1.27
2023-03-28T23:58:39.646Z,1.53
